CJL4 weather

La Loche Airport
La Loche, Saskatchewan, Canada

Public forecast

Using degrees Celsius for public forecast. Weather courtesy of forecast.io.

METAR (pilot weather report)

Closest report is Buffalo Narrows Airport, 50.2 nm (93.0 km) SE. Retrieved 2019/05/25 16:00 UTC (60 minutes ago):

CYVT 251600Z 16004KT 090V190 15SM BKN040 10/02 A2997 RMK SC7 SLP164

TAF (pilot weather forecast)

Closest forecast is Buffalo Narrows Airport, 50.2 nm (93.0 km) SE. Retrieved 2019/05/25 14:39 UTC (2 hours ago):

TAF CYVT 251338Z 2514/2602 VRB03KT P6SM SCT050 TEMPO 2514/2518 BKN050 FM251800 35008KT P6SM SCT080 RMK NXT FCST BY 251900Z